createdAt,value
2022-12-25T00:00:04.941Z,5.00
2022-12-25T00:02:32.048Z,5.00
2022-12-25T00:04:59.140Z,5.05
2022-12-25T00:07:26.198Z,4.80
2022-12-25T00:09:53.139Z,6.00
2022-12-25T00:12:21.079Z,4.72
2022-12-25T00:14:48.004Z,4.75
2022-12-25T00:17:22.144Z,4.95
2022-12-25T00:19:49.088Z,5.22
2022-12-25T00:22:16.020Z,4.45
2022-12-25T00:24:42.936Z,4.90
2022-12-25T00:27:09.967Z,5.13
2022-12-25T00:29:36.906Z,4.70
2022-12-25T00:32:03.830Z,5.03
2022-12-25T00:34:30.747Z,5.10
2022-12-25T00:36:58.813Z,6.30
2022-12-25T00:39:25.950Z,5.45
2022-12-25T00:41:52.872Z,6.25
2022-12-25T00:44:19.773Z,5.65
2022-12-25T00:46:46.744Z,5.82
2022-12-25T00:51:57.626Z,5.60
2022-12-25T00:54:24.700Z,5.38
2022-12-25T00:56:51.736Z,5.53
2022-12-25T00:59:18.722Z,5.15
2022-12-25T01:01:45.968Z,5.85
2022-12-25T01:04:13.044Z,5.38
2022-12-25T01:06:39.962Z,6.28
2022-12-25T01:09:07.746Z,5.78
2022-12-25T01:11:34.660Z,5.78
2022-12-25T01:14:01.646Z,6.10
2022-12-25T01:16:28.644Z,6.53
2022-12-25T01:18:55.714Z,6.30
2022-12-25T01:21:22.757Z,6.05
2022-12-25T01:23:49.762Z,6.18
2022-12-25T01:26:16.760Z,6.10
2022-12-25T01:28:43.875Z,6.80
2022-12-25T01:31:10.943Z,6.47
2022-12-25T01:33:37.895Z,6.35
2022-12-25T01:36:04.825Z,6.15
2022-12-25T01:38:31.765Z,6.78
2022-12-25T01:40:58.896Z,6.10
2022-12-25T01:43:25.840Z,7.30
2022-12-25T01:45:52.789Z,6.63
2022-12-25T01:48:19.752Z,6.90
2022-12-25T01:50:46.702Z,6.30
2022-12-25T01:53:13.615Z,6.47
2022-12-25T01:55:40.520Z,7.22
2022-12-25T01:58:07.419Z,6.82
2022-12-25T02:00:34.331Z,7.10
2022-12-25T02:03:01.314Z,6.32
2022-12-25T02:05:28.305Z,6.55
2022-12-25T02:07:55.204Z,6.28
2022-12-25T02:10:22.157Z,7.00
2022-12-25T02:12:49.128Z,6.32
2022-12-25T02:15:16.049Z,6.47
2022-12-25T02:17:42.998Z,7.22
2022-12-25T02:20:09.957Z,6.22
2022-12-25T02:22:36.859Z,6.43
2022-12-25T02:25:03.768Z,6.78
2022-12-25T02:27:30.887Z,5.78
2022-12-25T02:29:57.815Z,6.38
2022-12-25T02:32:24.696Z,7.30
2022-12-25T02:34:51.704Z,6.13
2022-12-25T02:37:18.595Z,6.38
2022-12-25T02:39:45.510Z,6.28
2022-12-25T02:42:12.405Z,5.75
2022-12-25T02:44:39.305Z,5.75
2022-12-25T02:47:06.189Z,6.35
2022-12-25T02:49:33.084Z,5.93
2022-12-25T02:51:59.975Z,6.05
2022-12-25T02:54:26.892Z,5.63
2022-12-25T02:56:53.782Z,5.57
2022-12-25T02:59:20.713Z,6.43
2022-12-25T03:01:47.726Z,6.45
2022-12-25T03:04:14.836Z,6.10
2022-12-25T03:06:41.753Z,6.40
2022-12-25T03:09:08.667Z,6.10
2022-12-25T03:11:35.595Z,5.82
2022-12-25T03:14:02.520Z,5.80
2022-12-25T03:16:29.504Z,6.50
2022-12-25T03:18:56.465Z,6.65
2022-12-25T03:21:23.365Z,6.55
2022-12-25T03:23:50.249Z,6.38
2022-12-25T03:26:17.174Z,6.53
2022-12-25T03:28:44.084Z,6.15
2022-12-25T03:31:11.054Z,6.93
2022-12-25T03:33:45.959Z,6.53
2022-12-25T03:36:13.050Z,6.90
2022-12-25T03:38:39.937Z,6.25
2022-12-25T03:41:06.884Z,6.28
2022-12-25T03:43:33.785Z,7.25
2022-12-25T03:46:00.707Z,6.82
2022-12-25T03:48:27.657Z,8.20
2022-12-25T03:50:54.595Z,7.20
2022-12-25T03:53:21.510Z,7.47
2022-12-25T03:55:48.410Z,6.90
2022-12-25T03:58:15.293Z,6.70
2022-12-25T04:00:42.189Z,7.65
2022-12-25T04:03:09.102Z,7.15
2022-12-25T04:05:36.260Z,7.70
2022-12-25T04:08:03.157Z,7.65
2022-12-25T04:10:30.083Z,8.05
2022-12-25T04:12:57.048Z,8.73
2022-12-25T04:15:24.259Z,8.07
2022-12-25T04:17:51.193Z,8.52
2022-12-25T04:20:18.143Z,9.15
2022-12-25T04:22:45.045Z,9.63
2022-12-25T04:25:11.943Z,9.05
2022-12-25T04:27:39.046Z,9.02
2022-12-25T04:30:05.953Z,8.95
2022-12-25T04:32:32.842Z,9.13
2022-12-25T04:34:59.736Z,8.90
2022-12-25T04:37:26.696Z,8.98
2022-12-25T04:39:53.746Z,8.88
2022-12-25T04:42:20.659Z,9.02
2022-12-25T04:44:47.584Z,8.80
2022-12-25T04:47:14.470Z,8.40
2022-12-25T04:49:41.411Z,8.98
2022-12-25T04:52:08.307Z,8.38
2022-12-25T04:54:35.244Z,7.93
2022-12-25T04:57:02.136Z,8.38
2022-12-25T04:59:29.065Z,8.05
2022-12-25T05:01:56.077Z,8.13
2022-12-25T05:04:23.121Z,8.25
2022-12-25T05:06:50.048Z,7.65
2022-12-25T05:09:16.963Z,7.75
2022-12-25T05:11:43.894Z,7.68
2022-12-25T05:14:10.792Z,7.82
2022-12-25T05:16:37.824Z,7.20
2022-12-25T05:19:04.726Z,7.32
2022-12-25T05:21:31.644Z,7.10
2022-12-25T05:23:58.545Z,7.53
2022-12-25T05:26:25.470Z,7.65
2022-12-25T05:28:52.385Z,7.45
2022-12-25T05:31:19.372Z,7.95
2022-12-25T05:33:46.373Z,7.25
2022-12-25T05:36:13.290Z,7.60
2022-12-25T05:38:40.208Z,7.57
2022-12-25T05:41:07.151Z,7.93
2022-12-25T05:43:34.069Z,7.82
2022-12-25T05:46:00.974Z,7.57
2022-12-25T05:48:27.873Z,8.35
2022-12-25T05:50:54.783Z,7.40
2022-12-25T05:53:21.668Z,7.03
2022-12-25T05:55:48.606Z,7.68
2022-12-25T05:58:15.502Z,7.05
2022-12-25T06:00:42.472Z,8.23
2022-12-25T06:03:09.478Z,8.02
2022-12-25T06:05:36.490Z,8.20
2022-12-25T06:08:03.371Z,7.65
2022-12-25T06:10:30.292Z,7.53
2022-12-25T06:12:57.199Z,8.05
2022-12-25T06:15:24.126Z,7.35
2022-12-25T06:17:51.029Z,7.70
2022-12-25T06:20:17.928Z,7.10
2022-12-25T06:22:44.825Z,6.90
2022-12-25T06:25:12.008Z,8.15
2022-12-25T06:27:38.915Z,7.97
2022-12-25T06:30:05.835Z,7.13
2022-12-25T06:32:32.737Z,7.20
2022-12-25T06:34:59.637Z,7.70
2022-12-25T06:37:26.551Z,7.40
2022-12-25T06:39:53.450Z,7.45
2022-12-25T06:42:20.348Z,7.63
2022-12-25T06:44:47.235Z,8.23
2022-12-25T06:47:14.145Z,8.05
2022-12-25T06:49:41.063Z,7.80
2022-12-25T06:52:08.066Z,7.40
2022-12-25T06:54:34.964Z,7.47
2022-12-25T06:57:01.870Z,7.90
2022-12-25T06:59:28.779Z,7.30
2022-12-25T07:01:55.862Z,7.85
2022-12-25T07:04:22.928Z,7.88
2022-12-25T07:06:49.866Z,8.38
2022-12-25T07:09:16.783Z,7.25
2022-12-25T07:11:43.736Z,7.45
2022-12-25T07:14:11.682Z,7.80
2022-12-25T07:16:38.617Z,7.80
2022-12-25T07:19:06.756Z,7.55
2022-12-25T07:21:33.660Z,7.63
2022-12-25T07:24:00.552Z,6.75
2022-12-25T07:26:27.456Z,8.05
2022-12-25T07:28:54.349Z,7.70
2022-12-25T07:31:21.288Z,7.28
2022-12-25T07:33:48.264Z,7.43
2022-12-25T07:36:15.231Z,7.38
2022-12-25T07:38:42.144Z,7.40
2022-12-25T07:41:09.068Z,6.68
2022-12-25T07:43:35.997Z,7.50
2022-12-25T07:46:02.949Z,8.15
2022-12-25T07:48:29.904Z,7.75
2022-12-25T07:50:56.799Z,7.50
2022-12-25T07:53:23.728Z,7.25
2022-12-25T07:55:50.630Z,7.75
2022-12-25T07:58:23.116Z,7.22
2022-12-25T08:00:50.568Z,7.05
2022-12-25T08:03:17.851Z,7.53
2022-12-25T08:05:44.852Z,7.72
2022-12-25T08:08:11.871Z,7.60
2022-12-25T08:10:38.768Z,10.13
2022-12-25T08:13:12.410Z,12.77
2022-12-25T08:15:41.240Z,20.08
2022-12-25T08:18:12.530Z,16.98
2022-12-25T08:20:39.430Z,14.35
2022-12-25T08:23:06.318Z,11.48
2022-12-25T08:25:33.241Z,11.25
2022-12-25T08:28:00.157Z,8.52
2022-12-25T08:30:27.223Z,7.93
2022-12-25T08:32:54.289Z,7.85
2022-12-25T08:35:21.214Z,7.50
2022-12-25T08:37:48.137Z,7.20
2022-12-25T08:40:15.039Z,7.70
2022-12-25T08:42:41.959Z,8.10
2022-12-25T08:45:08.855Z,7.80
2022-12-25T08:47:35.768Z,7.68
2022-12-25T08:50:02.907Z,8.23
2022-12-25T08:52:29.941Z,7.55
2022-12-25T08:54:56.820Z,8.05
2022-12-25T08:57:24.662Z,6.63
2022-12-25T08:59:51.555Z,7.18
2022-12-25T09:02:18.708Z,7.20
2022-12-25T09:04:45.790Z,6.78
2022-12-25T09:07:12.713Z,6.95
2022-12-25T09:09:39.628Z,6.38
2022-12-25T09:12:06.565Z,7.03
2022-12-25T09:14:33.480Z,7.32
2022-12-25T09:17:00.414Z,6.78
2022-12-25T09:19:27.363Z,6.63
2022-12-25T09:21:54.317Z,7.07
2022-12-25T09:24:21.197Z,6.50
2022-12-25T09:26:48.139Z,6.60
2022-12-25T09:29:15.054Z,6.75
2022-12-25T09:31:41.958Z,6.57
2022-12-25T09:34:11.426Z,6.20
2022-12-25T09:36:40.815Z,6.57
2022-12-25T09:39:07.927Z,6.55
2022-12-25T09:41:34.907Z,6.55
2022-12-25T09:44:01.859Z,6.60
2022-12-25T09:46:36.461Z,6.45
2022-12-25T09:49:04.058Z,6.35
2022-12-25T09:51:30.968Z,6.57
2022-12-25T09:53:57.850Z,6.63
2022-12-25T09:56:24.782Z,6.28
2022-12-25T09:58:51.693Z,6.80
2022-12-25T10:01:18.712Z,6.90
2022-12-25T10:03:45.722Z,6.75
2022-12-25T10:06:12.731Z,6.88
2022-12-25T10:08:39.699Z,6.43
2022-12-25T10:11:06.592Z,6.93
2022-12-25T10:13:33.501Z,7.55
2022-12-25T10:16:00.501Z,6.97
2022-12-25T10:18:27.441Z,7.72
2022-12-25T10:20:54.353Z,7.70
2022-12-25T10:23:21.266Z,6.70
2022-12-25T10:25:48.164Z,7.95
2022-12-25T10:28:15.059Z,7.43
2022-12-25T10:30:42.012Z,9.00
2022-12-25T10:33:12.152Z,7.88
2022-12-25T10:35:43.705Z,8.38
2022-12-25T10:38:10.624Z,8.23
2022-12-25T10:40:37.525Z,7.63
2022-12-25T10:43:04.515Z,7.75
2022-12-25T10:45:31.462Z,7.03
2022-12-25T10:48:05.010Z,7.47
2022-12-25T10:50:33.980Z,7.55
2022-12-25T10:53:00.908Z,7.00
2022-12-25T10:58:08.714Z,7.30
2022-12-25T11:00:35.714Z,8.68
2022-12-25T11:03:02.791Z,8.02
2022-12-25T11:05:29.827Z,7.53
2022-12-25T11:07:56.787Z,7.60
2022-12-25T11:10:23.832Z,7.05
2022-12-25T11:12:50.853Z,7.45
2022-12-25T11:15:17.748Z,6.85
2022-12-25T11:17:44.698Z,6.60
2022-12-25T11:20:11.717Z,7.53
2022-12-25T11:22:38.653Z,6.70
2022-12-25T11:25:05.628Z,6.65
2022-12-25T11:27:32.569Z,6.90
2022-12-25T11:29:59.488Z,7.05
2022-12-25T11:32:26.399Z,6.93
2022-12-25T11:34:53.316Z,6.93
2022-12-25T11:37:20.252Z,7.18
2022-12-25T11:39:47.163Z,7.38
2022-12-25T11:42:14.116Z,6.75
2022-12-25T11:44:41.081Z,7.47
2022-12-25T11:47:08.048Z,7.65
2022-12-25T11:49:34.948Z,7.78
2022-12-25T11:52:01.892Z,7.47
2022-12-25T11:54:28.786Z,8.07
2022-12-25T11:56:55.707Z,7.53
2022-12-25T11:59:22.621Z,7.50
2022-12-25T12:01:50.786Z,6.90
2022-12-25T12:04:17.787Z,6.57
2022-12-25T12:06:44.703Z,6.72
2022-12-25T12:09:11.624Z,6.50
2022-12-25T12:11:38.573Z,6.72
2022-12-25T12:14:05.776Z,6.38
2022-12-25T12:16:32.798Z,6.47
2022-12-25T12:18:59.797Z,6.47
2022-12-25T12:35:31.142Z,5.60
2022-12-25T12:37:58.231Z,5.30
2022-12-25T12:40:25.115Z,5.32
2022-12-25T12:42:52.211Z,5.53
2022-12-25T12:45:19.245Z,5.65
2022-12-25T12:47:46.196Z,5.70
2022-12-25T12:50:13.210Z,5.47
2022-12-25T12:52:40.162Z,5.28
2022-12-25T12:55:07.076Z,5.70
2022-12-25T12:57:34.024Z,5.55
2022-12-25T13:00:06.612Z,6.57
2022-12-25T13:02:36.895Z,7.75
2022-12-25T13:05:03.968Z,6.80
2022-12-25T13:07:33.990Z,6.30
2022-12-25T13:10:00.922Z,5.43
2022-12-25T13:12:27.852Z,5.93
2022-12-25T13:14:54.804Z,5.95
2022-12-25T13:17:21.741Z,5.90
2022-12-25T13:19:48.675Z,5.78
2022-12-25T13:22:15.612Z,5.32
2022-12-25T13:24:42.532Z,4.95
2022-12-25T13:27:09.452Z,5.72
2022-12-25T13:29:36.406Z,6.25
2022-12-25T13:32:03.443Z,5.88
2022-12-25T13:34:30.449Z,5.18
2022-12-25T13:36:57.379Z,6.65
2022-12-25T13:39:24.310Z,5.97
2022-12-25T13:41:51.236Z,5.45
2022-12-25T13:44:18.187Z,5.55
2022-12-25T13:46:45.097Z,5.55
2022-12-25T13:49:12.111Z,4.70
2022-12-25T13:51:39.049Z,4.93
2022-12-25T13:54:06.024Z,5.15
2022-12-25T13:56:32.974Z,5.38
2022-12-25T13:59:00.011Z,5.47
2022-12-25T14:01:27.003Z,4.90
2022-12-25T14:03:53.978Z,5.50
2022-12-25T14:06:20.931Z,5.72
2022-12-25T14:08:47.894Z,5.47
2022-12-25T14:11:14.820Z,4.95
2022-12-25T14:13:41.801Z,5.10
2022-12-25T14:16:08.802Z,6.20
2022-12-25T14:18:35.773Z,5.65
2022-12-25T14:21:02.699Z,5.85
2022-12-25T14:23:29.649Z,5.45
2022-12-25T14:25:56.607Z,5.45
2022-12-25T14:28:23.591Z,6.00
2022-12-25T14:30:50.630Z,5.82
2022-12-25T14:33:17.695Z,5.88
2022-12-25T14:35:44.666Z,6.30
2022-12-25T14:38:11.612Z,6.13
2022-12-25T14:40:38.600Z,6.68
2022-12-25T14:43:05.524Z,6.15
2022-12-25T14:45:32.469Z,6.28
2022-12-25T14:47:59.413Z,6.40
2022-12-25T14:50:26.441Z,6.85
2022-12-25T14:52:53.417Z,6.45
2022-12-25T14:55:20.355Z,5.97
2022-12-25T14:57:47.543Z,6.32
2022-12-25T15:00:14.524Z,6.53
2022-12-25T15:02:41.672Z,6.20
2022-12-25T15:05:08.775Z,6.72
2022-12-25T15:07:35.734Z,6.57
2022-12-25T15:10:47.089Z,6.68
2022-12-25T15:12:49.608Z,5.95
2022-12-25T15:15:16.582Z,5.95
2022-12-25T15:17:43.508Z,6.15
2022-12-25T15:20:10.463Z,5.90
2022-12-25T15:23:02.285Z,5.78
2022-12-25T15:25:24.305Z,6.28
2022-12-25T15:27:51.237Z,7.15
2022-12-25T15:30:18.167Z,6.43
2022-12-25T15:32:45.162Z,6.45
2022-12-25T15:35:12.113Z,8.55
2022-12-25T15:37:39.049Z,7.78
2022-12-25T15:40:06.768Z,8.20
2022-12-25T15:42:33.871Z,8.23
2022-12-25T15:45:00.776Z,7.28
2022-12-25T15:47:27.715Z,7.00
2022-12-25T15:49:54.654Z,6.28
2022-12-25T15:52:21.586Z,6.05
2022-12-25T15:54:48.556Z,5.90
2022-12-25T15:57:15.527Z,6.47
2022-12-25T15:59:42.548Z,6.30
2022-12-25T16:02:09.667Z,6.55
2022-12-25T16:04:36.670Z,6.70
2022-12-25T16:07:03.658Z,6.68
2022-12-25T16:09:30.612Z,6.72
2022-12-25T16:11:57.555Z,6.82
2022-12-25T16:14:25.295Z,6.97
2022-12-25T16:16:52.392Z,6.95
2022-12-25T16:19:19.375Z,7.32
2022-12-25T16:21:46.364Z,8.40
2022-12-25T16:24:13.362Z,8.52
2022-12-25T16:26:40.337Z,8.25
2022-12-25T16:29:07.778Z,8.52
2022-12-25T16:31:35.128Z,8.88
2022-12-25T16:34:02.188Z,9.10
2022-12-25T16:36:29.283Z,9.63
2022-12-25T16:38:56.280Z,8.75
2022-12-25T16:41:25.707Z,9.40
2022-12-25T16:43:52.679Z,9.18
2022-12-25T16:46:19.698Z,9.05
2022-12-25T16:48:46.716Z,8.73
2022-12-25T16:51:13.663Z,9.20
2022-12-25T16:53:40.630Z,9.70
2022-12-25T16:56:07.643Z,9.70
2022-12-25T16:58:34.574Z,9.77
2022-12-25T17:01:01.711Z,8.77
2022-12-25T17:03:28.738Z,11.35
2022-12-25T17:05:56.078Z,11.60
2022-12-25T17:08:23.055Z,10.48
2022-12-25T17:10:50.092Z,10.40
2022-12-25T17:13:17.111Z,11.15
2022-12-25T17:15:50.155Z,10.65
2022-12-25T17:18:17.484Z,9.68
2022-12-25T17:20:44.466Z,9.73
2022-12-25T17:23:11.458Z,10.30
2022-12-25T17:25:38.472Z,9.27
2022-12-25T17:28:05.454Z,10.23
2022-12-25T17:30:35.781Z,10.43
2022-12-25T17:33:02.696Z,10.73
2022-12-25T17:35:29.674Z,10.63
2022-12-25T17:37:56.579Z,11.48
2022-12-25T17:40:23.594Z,10.88
2022-12-25T17:42:50.570Z,11.10
2022-12-25T17:45:17.624Z,9.75
2022-12-25T17:47:44.583Z,10.50
2022-12-25T17:50:11.631Z,10.55
2022-12-25T17:52:38.677Z,9.68
2022-12-25T17:55:05.657Z,10.05
2022-12-25T17:57:33.028Z,10.98
2022-12-25T18:00:00.081Z,9.80
2022-12-25T18:02:27.217Z,9.73
2022-12-25T18:04:54.318Z,10.18
2022-12-25T18:07:21.367Z,10.27
2022-12-25T18:09:48.350Z,10.05
2022-12-25T18:12:15.302Z,9.95
2022-12-25T18:14:42.327Z,10.63
2022-12-25T18:17:09.380Z,10.13
2022-12-25T18:19:36.515Z,10.15
2022-12-25T18:22:03.504Z,11.18
2022-12-25T18:24:30.506Z,10.30
2022-12-25T18:26:57.520Z,9.95
2022-12-25T18:29:26.606Z,10.15
2022-12-25T18:31:53.675Z,10.18
2022-12-25T18:34:20.734Z,10.20
2022-12-25T18:36:47.776Z,10.27
2022-12-25T18:39:14.766Z,10.88
2022-12-25T18:41:41.722Z,11.88
2022-12-25T18:44:08.706Z,11.27
2022-12-25T18:46:35.738Z,11.50
2022-12-25T18:49:02.698Z,10.40
2022-12-25T18:51:36.430Z,10.88
2022-12-25T18:54:03.944Z,9.68
2022-12-25T18:56:30.918Z,10.32
2022-12-25T18:58:57.879Z,9.65
2022-12-25T19:01:25.088Z,8.77
2022-12-25T19:03:53.127Z,8.80
2022-12-25T19:06:22.028Z,9.65
2022-12-25T19:08:49.095Z,9.57
2022-12-25T19:11:16.142Z,9.45
2022-12-25T19:13:43.102Z,8.85
2022-12-25T19:16:10.188Z,9.90
2022-12-25T19:18:37.231Z,9.77
2022-12-25T19:21:04.221Z,8.82
2022-12-25T19:23:31.169Z,10.45
2022-12-25T19:25:58.145Z,11.13
2022-12-25T19:28:25.152Z,10.30
2022-12-25T19:30:52.150Z,10.10
2022-12-25T19:33:19.108Z,10.05
2022-12-25T19:35:46.123Z,8.27
2022-12-25T19:38:13.068Z,8.55
2022-12-25T19:40:40.063Z,7.68
2022-12-25T19:43:07.020Z,7.80
2022-12-25T19:45:33.978Z,6.88
2022-12-25T19:48:00.946Z,7.10
2022-12-25T19:50:27.946Z,7.22
2022-12-25T19:52:54.904Z,7.90
2022-12-25T19:55:21.906Z,8.20
2022-12-25T19:57:48.834Z,8.48
2022-12-25T20:00:15.778Z,8.93
2022-12-25T20:02:42.831Z,8.57
2022-12-25T20:05:09.890Z,10.60
2022-12-25T20:07:36.887Z,11.57
2022-12-25T20:10:03.835Z,10.93
2022-12-25T20:12:30.777Z,10.45
2022-12-25T20:14:57.736Z,13.13
2022-12-25T20:17:24.753Z,12.40
2022-12-25T20:19:51.723Z,10.90
2022-12-25T20:22:18.742Z,8.85
2022-12-25T20:24:45.734Z,8.00
2022-12-25T20:27:12.714Z,8.10
2022-12-25T20:29:39.732Z,8.02
2022-12-25T20:32:06.851Z,7.53
2022-12-25T20:34:33.833Z,6.65
2022-12-25T20:37:00.820Z,7.00
2022-12-25T20:39:27.912Z,7.15
2022-12-25T20:41:54.894Z,6.65
2022-12-25T20:44:21.839Z,8.00
2022-12-25T20:46:48.803Z,9.02
2022-12-25T20:49:15.781Z,8.40
2022-12-25T20:51:42.765Z,8.13
2022-12-25T20:54:09.762Z,9.75
2022-12-25T20:56:36.787Z,9.45
2022-12-25T20:59:03.802Z,9.18
2022-12-25T21:01:30.979Z,10.27
2022-12-25T21:04:05.575Z,9.20
2022-12-25T21:06:32.617Z,10.10
2022-12-25T21:08:59.557Z,9.13
2022-12-25T21:11:26.523Z,10.07
2022-12-25T21:13:53.520Z,9.20
2022-12-25T21:16:20.589Z,8.15
2022-12-25T21:18:47.874Z,8.50
2022-12-25T21:21:14.936Z,7.93
2022-12-25T21:23:41.855Z,7.80
2022-12-25T21:26:08.800Z,7.68
2022-12-25T21:28:35.746Z,6.82
2022-12-25T21:31:02.740Z,7.07
2022-12-25T21:33:29.745Z,6.68
2022-12-25T21:35:56.740Z,11.80
2022-12-25T21:38:23.684Z,11.63
2022-12-25T21:40:50.654Z,9.23
2022-12-25T21:43:17.578Z,8.38
2022-12-25T21:45:44.735Z,7.63
2022-12-25T21:48:11.743Z,6.22
2022-12-25T21:50:39.551Z,7.32
2022-12-25T21:53:06.555Z,9.77
2022-12-25T21:55:33.489Z,9.25
2022-12-25T21:58:00.449Z,9.70
2022-12-25T22:00:27.391Z,10.82
2022-12-25T22:02:54.478Z,9.43
2022-12-25T22:05:21.489Z,8.68
2022-12-25T22:07:48.469Z,8.20
2022-12-25T22:10:15.444Z,6.82
2022-12-25T22:12:42.453Z,6.60
2022-12-25T22:15:09.410Z,6.50
2022-12-25T22:17:36.384Z,6.32
2022-12-25T22:20:03.335Z,6.40
2022-12-25T22:22:42.631Z,6.45
2022-12-25T22:25:09.585Z,5.90
2022-12-25T22:27:36.560Z,5.95
2022-12-25T22:30:03.532Z,6.10
2022-12-25T22:32:30.548Z,6.28
2022-12-25T22:34:57.505Z,6.13
2022-12-25T22:37:24.489Z,6.18
2022-12-25T22:39:51.443Z,6.20
2022-12-25T22:42:18.396Z,5.85
2022-12-25T22:44:45.314Z,6.05
2022-12-25T22:47:12.280Z,5.80
2022-12-25T22:49:39.237Z,5.90
2022-12-25T22:52:07.625Z,5.88
